createdAt,value
2018-10-11T00:01:00.994Z,101875.00
2018-10-11T00:03:29.471Z,101881.03
2018-10-11T00:05:58.239Z,101881.91
2018-10-11T00:08:26.781Z,101873.72
2018-10-11T00:10:55.450Z,101882.39
2018-10-11T00:13:23.962Z,101884.23
2018-10-11T00:15:52.470Z,101880.31
2018-10-11T00:18:21.073Z,101880.27
2018-10-11T00:20:49.594Z,101873.33
2018-10-11T00:23:18.202Z,101880.01
2018-10-11T00:25:46.682Z,101868.98
2018-10-11T00:28:15.446Z,101874.17
2018-10-11T00:30:44.055Z,101873.25
2018-10-11T00:33:12.506Z,101880.19
2018-10-11T00:35:41.123Z,101878.91
2018-10-11T00:38:09.599Z,101870.70
2018-10-11T00:40:38.375Z,101867.27
2018-10-11T00:43:07.494Z,101864.39
2018-10-11T00:45:36.318Z,101870.52
2018-10-11T00:48:04.833Z,101871.07
2018-10-11T00:50:33.519Z,101860.53
2018-10-11T00:53:02.054Z,101866.68
2018-10-11T00:55:30.593Z,101868.05
2018-10-11T00:57:59.180Z,101864.97
2018-10-11T01:00:27.700Z,101866.28
2018-10-11T01:02:56.318Z,101863.16
2018-10-11T01:05:24.938Z,101859.44
2018-10-11T01:07:53.656Z,101835.97
2018-10-11T01:10:22.146Z,101859.67
2018-10-11T01:12:50.747Z,101859.81
2018-10-11T01:15:19.246Z,101850.09
2018-10-11T01:17:47.778Z,101851.41
2018-10-11T01:20:16.541Z,101850.09
2018-10-11T01:22:45.036Z,101853.56
2018-10-11T01:25:13.695Z,101845.70
2018-10-11T01:27:42.433Z,101837.73
2018-10-11T01:30:11.092Z,101836.78
2018-10-11T01:32:39.634Z,101829.00
2018-10-11T01:35:08.486Z,101836.47
2018-10-11T01:37:37.056Z,101830.36
2018-10-11T01:40:05.654Z,101833.34
2018-10-11T01:42:34.632Z,101822.80
2018-10-11T01:45:03.215Z,101827.10
2018-10-11T01:47:31.838Z,101834.09
2018-10-11T01:50:00.422Z,101827.90
2018-10-11T01:52:29.006Z,101829.69
2018-10-11T01:54:57.487Z,101827.90
2018-10-11T01:57:26.125Z,101822.67
2018-10-11T01:59:54.954Z,101739.08
2018-10-11T02:02:23.439Z,101828.91
2018-10-11T02:04:52.298Z,101828.08
2018-10-11T02:07:20.774Z,101822.05
2018-10-11T02:09:49.496Z,101811.51
2018-10-11T02:12:18.026Z,101821.67
2018-10-11T02:14:46.540Z,101807.08
2018-10-11T02:17:15.254Z,101804.87
2018-10-11T02:19:43.862Z,101801.94
2018-10-11T02:22:12.690Z,101809.49
2018-10-11T02:24:41.202Z,101810.81
2018-10-11T02:27:09.835Z,101812.62
2018-10-11T02:29:38.366Z,101817.84
2018-10-11T02:32:06.940Z,101803.91
2018-10-11T02:34:35.530Z,101802.81
2018-10-11T02:37:04.172Z,101803.59
2018-10-11T02:39:32.959Z,101799.12
2018-10-11T02:42:01.566Z,101789.54
2018-10-11T02:44:30.336Z,101750.72
2018-10-11T02:46:58.833Z,101788.12
2018-10-11T02:49:27.351Z,101784.08
2018-10-11T02:51:56.525Z,101785.70
2018-10-11T02:54:25.123Z,101790.80
2018-10-11T02:56:59.304Z,101684.77
2018-10-11T02:59:32.505Z,101795.37
2018-10-11T03:02:03.782Z,101794.45
2018-10-11T03:04:33.042Z,101797.08
2018-10-11T03:07:01.858Z,101794.36
2018-10-11T03:09:30.494Z,101795.63
2018-10-11T03:11:59.149Z,101790.00
2018-10-11T03:14:27.910Z,101786.53
2018-10-11T03:16:56.426Z,101795.19
2018-10-11T03:19:25.183Z,101795.19
2018-10-11T03:21:53.763Z,101793.30
2018-10-11T03:24:22.505Z,101793.34
2018-10-11T03:26:51.122Z,101785.03
2018-10-11T03:29:19.698Z,101785.43
2018-10-11T03:31:48.208Z,101783.62
2018-10-11T03:34:16.706Z,101777.07
2018-10-11T03:36:45.358Z,101775.70
2018-10-11T03:39:14.018Z,101773.06
2018-10-11T03:41:42.717Z,101773.89
2018-10-11T03:44:11.211Z,101767.20
2018-10-11T03:46:40.329Z,101765.98
2018-10-11T03:49:09.090Z,101765.76
2018-10-11T03:51:37.678Z,101760.48
2018-10-11T03:54:06.162Z,101758.67
2018-10-11T03:56:34.659Z,101761.22
2018-10-11T03:59:03.424Z,101755.11
2018-10-11T04:01:32.082Z,101758.97
2018-10-11T04:04:00.909Z,101754.12
2018-10-11T04:06:29.541Z,101759.41
2018-10-11T04:08:58.193Z,101748.47
2018-10-11T04:11:27.013Z,101752.86
2018-10-11T04:13:56.092Z,101750.61
2018-10-11T04:16:24.674Z,101748.33
2018-10-11T04:18:53.194Z,101747.05
2018-10-11T04:21:21.898Z,101736.98
2018-10-11T04:23:50.407Z,101735.13
2018-10-11T04:26:19.236Z,101734.24
2018-10-11T04:28:47.907Z,101742.45
2018-10-11T04:31:16.731Z,101741.53
2018-10-11T04:33:45.285Z,101732.25
2018-10-11T04:36:13.918Z,101731.41
2018-10-11T04:38:42.397Z,101737.08
2018-10-11T04:41:10.898Z,101728.82
2018-10-11T04:43:39.630Z,101728.67
2018-10-11T04:46:08.191Z,101733.52
2018-10-11T04:48:36.890Z,101730.03
2018-10-11T04:51:05.459Z,101721.70
2018-10-11T04:53:34.305Z,101720.91
2018-10-11T04:56:03.011Z,101724.23
2018-10-11T04:58:31.515Z,101719.78
2018-10-11T05:01:02.694Z,101723.98
2018-10-11T05:03:31.227Z,101720.02
2018-10-11T05:06:00.150Z,101723.83
2018-10-11T05:08:28.706Z,101705.02
2018-10-11T05:11:00.476Z,101720.20
2018-10-11T05:13:41.679Z,101713.95
2018-10-11T05:16:11.631Z,101709.88
2018-10-11T05:18:43.361Z,101712.47
2018-10-11T05:21:11.999Z,101710.52
2018-10-11T05:23:43.074Z,101703.47
2018-10-11T05:26:11.664Z,101710.36
2018-10-11T05:28:40.774Z,101712.28
2018-10-11T05:31:09.538Z,101714.05
2018-10-11T05:33:39.517Z,101696.50
2018-10-11T05:36:08.016Z,101706.91
2018-10-11T05:38:36.628Z,101708.56
2018-10-11T05:41:05.218Z,101692.38
2018-10-11T05:43:33.906Z,101693.88
2018-10-11T05:46:04.222Z,101635.47
2018-10-11T05:48:34.048Z,101695.13
2018-10-11T05:51:03.866Z,101698.08
2018-10-11T05:53:33.418Z,101693.48
2018-10-11T05:56:02.102Z,101694.13
2018-10-11T05:58:30.752Z,101688.84
2018-10-11T06:00:59.474Z,101689.52
2018-10-11T06:03:28.042Z,101686.77
2018-10-11T06:05:56.643Z,101686.77
2018-10-11T06:08:25.413Z,101690.28
2018-10-11T06:10:54.341Z,101692.81
2018-10-11T06:13:22.974Z,101686.48
2018-10-11T06:15:51.669Z,101684.66
2018-10-11T06:18:21.166Z,101673.22
2018-10-11T06:20:50.832Z,101680.47
2018-10-11T06:23:19.491Z,101678.64
2018-10-11T06:25:48.006Z,101680.24
2018-10-11T06:28:16.752Z,101680.94
2018-10-11T06:30:45.438Z,101669.05
2018-10-11T06:33:14.362Z,101666.29
2018-10-11T06:35:43.097Z,101671.46
2018-10-11T06:38:11.984Z,101667.77
2018-10-11T06:40:40.614Z,101661.05
2018-10-11T06:43:09.427Z,101660.53
2018-10-11T06:45:38.106Z,101646.27
2018-10-11T06:48:09.403Z,101658.59
2018-10-11T06:50:38.089Z,101661.53
2018-10-11T06:53:07.209Z,101653.42
2018-10-11T06:55:35.710Z,101661.55
2018-10-11T06:58:04.294Z,101664.47
2018-10-11T07:00:33.134Z,101624.06
2018-10-11T07:03:01.610Z,101670.20
2018-10-11T07:05:30.406Z,101672.98
2018-10-11T07:07:58.993Z,101672.35
2018-10-11T07:10:27.623Z,101673.00
2018-10-11T07:12:56.102Z,101667.53
2018-10-11T07:15:24.725Z,101674.83
2018-10-11T07:17:53.454Z,101666.18
2018-10-11T07:20:22.014Z,101663.28
2018-10-11T07:22:50.764Z,101662.12
2018-10-11T07:25:19.254Z,101666.41
2018-10-11T07:27:48.014Z,101662.76
2018-10-11T07:30:16.572Z,101659.08
2018-10-11T07:32:45.071Z,101661.47
2018-10-11T07:35:13.999Z,101653.39
2018-10-11T07:37:42.603Z,101603.59
2018-10-11T07:40:11.404Z,101660.92
2018-10-11T07:42:39.815Z,101652.70
2018-10-11T07:45:08.578Z,101644.48
2018-10-11T07:47:37.141Z,101653.34
2018-10-11T07:50:06.206Z,101649.48
2018-10-11T07:52:34.801Z,101647.22
2018-10-11T07:55:03.504Z,101642.55
2018-10-11T07:57:32.217Z,101644.14
2018-10-11T08:00:00.774Z,101639.33
2018-10-11T08:02:29.562Z,101634.92
2018-10-11T08:04:58.142Z,101632.22
2018-10-11T08:07:27.095Z,101645.98
2018-10-11T08:09:55.616Z,101647.75
2018-10-11T08:12:24.278Z,101650.53
2018-10-11T08:14:52.883Z,101615.88
2018-10-11T08:17:21.735Z,101640.69
2018-10-11T08:19:50.299Z,101642.31
2018-10-11T08:22:19.089Z,101641.85
2018-10-11T08:24:48.201Z,101524.08
2018-10-11T08:27:16.710Z,101633.33
2018-10-11T08:29:45.438Z,101645.30
2018-10-11T08:32:14.169Z,101628.64
2018-10-11T08:34:42.746Z,101633.52
2018-10-11T08:37:11.275Z,101628.12
2018-10-11T08:39:39.810Z,101623.10
2018-10-11T08:42:08.774Z,101572.38
2018-10-11T08:44:37.330Z,101624.64
2018-10-11T08:47:06.279Z,101626.70
2018-10-11T08:49:34.762Z,101628.28
2018-10-11T08:52:03.442Z,101612.08
2018-10-11T08:54:37.162Z,101621.11
2018-10-11T08:57:06.267Z,101628.58
2018-10-11T08:59:34.784Z,101616.23
2018-10-11T09:02:03.637Z,101569.95
2018-10-11T09:04:32.158Z,101618.02
2018-10-11T09:07:00.815Z,101617.66
2018-10-11T09:09:29.339Z,101615.78
2018-10-11T09:11:57.990Z,101613.81
2018-10-11T09:14:26.655Z,101609.14
2018-10-11T09:16:55.162Z,101609.56
2018-10-11T09:19:24.102Z,101613.23
2018-10-11T09:21:52.586Z,101613.25
2018-10-11T09:24:21.499Z,101598.52
2018-10-11T09:26:50.006Z,101604.53
2018-10-11T09:29:18.842Z,101604.17
2018-10-11T09:31:47.342Z,101610.47
2018-10-11T09:34:16.022Z,101411.39
2018-10-11T09:36:44.559Z,101598.70
2018-10-11T09:39:13.198Z,101588.41
2018-10-11T09:41:41.994Z,101595.34
2018-10-11T09:44:10.910Z,101592.11
2018-10-11T09:46:39.631Z,101544.80
2018-10-11T09:49:08.163Z,101589.37
2018-10-11T09:51:36.758Z,101594.88
2018-10-11T09:54:05.435Z,101598.13
2018-10-11T09:57:11.405Z,101593.48
2018-10-11T09:59:40.309Z,101591.53
2018-10-11T10:02:11.288Z,101590.62
2018-10-11T10:04:43.358Z,101599.47
2018-10-11T10:07:12.200Z,101589.73
2018-10-11T10:09:41.453Z,101574.86
2018-10-11T10:12:10.718Z,101583.12
2018-10-11T10:14:39.894Z,101570.61
2018-10-11T10:17:08.466Z,101572.67
2018-10-11T10:19:37.370Z,101561.79
2018-10-11T10:22:06.213Z,101557.84
2018-10-11T10:24:35.294Z,101555.64
2018-10-11T10:27:03.984Z,101548.91
2018-10-11T10:29:32.571Z,101539.05
2018-10-11T10:32:01.506Z,101535.67
2018-10-11T10:34:30.098Z,101527.45
2018-10-11T10:36:58.664Z,101535.05
2018-10-11T10:39:27.213Z,101521.70
2018-10-11T10:41:56.087Z,101518.50
2018-10-11T10:44:24.630Z,101520.24
2018-10-11T10:46:53.322Z,101518.48
2018-10-11T10:49:21.886Z,101517.11
2018-10-11T10:51:50.590Z,101509.03
2018-10-11T10:54:23.296Z,101514.05
2018-10-11T10:56:52.333Z,101462.27
2018-10-11T10:59:20.874Z,101448.19
2018-10-11T11:01:49.635Z,101508.31
2018-10-11T11:04:18.327Z,101494.86
2018-10-11T11:06:46.870Z,101495.94
2018-10-11T11:09:15.760Z,101492.93
2018-10-11T11:11:44.673Z,101493.55
2018-10-11T11:14:14.600Z,101495.78
2018-10-11T11:16:43.478Z,101488.06
2018-10-11T11:19:12.732Z,101497.38
2018-10-11T11:21:41.358Z,101495.34
2018-10-11T11:24:10.250Z,101493.44
2018-10-11T11:26:38.751Z,101488.97
2018-10-11T11:29:07.685Z,101488.63
2018-10-11T11:31:36.283Z,101477.84
2018-10-11T11:34:04.906Z,101490.19
2018-10-11T11:36:33.682Z,101477.20
2018-10-11T11:39:02.216Z,101493.05
2018-10-11T11:41:31.010Z,101476.47
2018-10-11T11:43:59.512Z,101484.27
2018-10-11T11:46:28.372Z,101476.52
2018-10-11T11:48:57.002Z,101477.10
2018-10-11T11:51:25.563Z,101468.72
2018-10-11T11:53:54.115Z,101461.03
2018-10-11T11:56:22.617Z,101465.56
2018-10-11T11:58:51.317Z,101461.55
2018-10-11T12:01:19.883Z,101468.48
2018-10-11T12:03:48.502Z,101454.86
2018-10-11T12:06:17.064Z,101455.84
2018-10-11T12:08:45.782Z,101446.94
2018-10-11T12:11:14.354Z,101436.96
2018-10-11T12:13:42.963Z,101428.56
2018-10-11T12:16:11.664Z,101422.88
2018-10-11T12:18:40.257Z,101431.96
2018-10-11T12:21:08.923Z,101434.44
2018-10-11T12:23:37.466Z,101434.47
2018-10-11T12:26:06.467Z,101428.75
2018-10-11T12:28:35.157Z,101425.44
2018-10-11T12:31:03.716Z,101421.56
2018-10-11T12:33:32.218Z,101425.82
2018-10-11T12:36:00.714Z,101420.34
2018-10-11T12:38:29.465Z,101416.67
2018-10-11T12:40:58.064Z,101418.99
2018-10-11T12:43:26.781Z,101399.86
2018-10-11T12:45:55.385Z,101410.84
2018-10-11T12:48:24.042Z,101406.81
2018-10-11T12:50:52.598Z,101402.28
2018-10-11T12:53:21.178Z,101411.06
2018-10-11T12:55:49.836Z,101404.49
2018-10-11T12:58:18.592Z,101404.00
2018-10-11T13:00:47.562Z,101401.91
2018-10-11T13:03:16.108Z,101400.83
2018-10-11T13:05:44.829Z,101388.73
2018-10-11T13:08:13.437Z,101380.56
2018-10-11T13:10:42.221Z,101383.98
2018-10-11T13:13:10.902Z,101373.25
2018-10-11T13:15:39.527Z,101370.06
2018-10-11T13:18:07.994Z,101370.89
2018-10-11T13:20:36.474Z,101370.06
2018-10-11T13:23:08.487Z,101362.02
2018-10-11T13:25:33.718Z,101368.09
2018-10-11T13:28:02.395Z,101366.97
2018-10-11T13:30:30.991Z,101363.20
2018-10-11T13:32:59.492Z,101364.80
2018-10-11T13:35:28.109Z,101360.66
2018-10-11T13:37:56.598Z,101366.97
2018-10-11T13:40:25.499Z,101375.14
2018-10-11T13:42:54.126Z,101374.55
2018-10-11T13:45:23.116Z,101365.89
2018-10-11T13:47:51.636Z,101363.81
2018-10-11T13:50:20.220Z,101364.03
2018-10-11T13:52:48.820Z,101362.25
2018-10-11T13:55:18.003Z,101349.05
2018-10-11T13:57:46.643Z,101317.42
2018-10-11T14:00:15.203Z,101346.16
2018-10-11T14:02:44.937Z,101340.41
2018-10-11T14:05:13.442Z,101332.01
2018-10-11T14:07:42.429Z,101329.45
2018-10-11T14:10:11.035Z,101327.15
2018-10-11T14:12:39.778Z,101322.39
2018-10-11T14:15:08.814Z,101318.87
2018-10-11T14:17:37.440Z,101314.48
2018-10-11T14:20:06.142Z,101321.92
2018-10-11T14:22:34.734Z,101325.72
2018-10-11T14:25:03.421Z,101330.34
2018-10-11T14:27:32.052Z,101330.12
2018-10-11T14:30:00.954Z,101324.87
2018-10-11T14:32:29.476Z,101318.07
2018-10-11T14:34:58.283Z,101307.95
2018-10-11T14:37:26.942Z,101301.38
2018-10-11T14:39:55.477Z,101290.30
2018-10-11T14:42:23.977Z,101284.35
2018-10-11T14:44:52.585Z,101285.44
2018-10-11T14:47:21.475Z,101284.59
2018-10-11T14:49:49.999Z,101274.72
2018-10-11T14:52:18.915Z,101272.29
2018-10-11T14:54:47.598Z,101276.56
2018-10-11T14:57:16.265Z,101279.48
2018-10-11T14:59:44.838Z,101274.84
2018-10-11T15:02:13.390Z,101271.16
2018-10-11T15:04:42.318Z,101268.62
2018-10-11T15:07:11.013Z,101273.98
2018-10-11T15:09:40.181Z,101232.34
2018-10-11T15:12:08.737Z,101269.71
2018-10-11T15:14:37.440Z,101266.06
2018-10-11T15:17:06.021Z,101269.61
2018-10-11T15:19:34.535Z,101264.11
2018-10-11T15:22:03.375Z,101166.67
2018-10-11T15:24:31.997Z,101259.72
2018-10-11T15:27:01.105Z,101255.08
2018-10-11T15:29:30.071Z,101243.15
2018-10-11T15:31:58.886Z,101203.14
2018-10-11T15:34:27.458Z,101246.78
2018-10-11T15:36:56.206Z,101246.90
2018-10-11T15:39:24.828Z,101246.16
2018-10-11T15:41:53.333Z,101243.55
2018-10-11T15:44:21.936Z,101218.38
2018-10-11T15:46:50.515Z,101249.25
2018-10-11T15:49:19.377Z,101234.03
2018-10-11T15:51:48.010Z,101230.36
2018-10-11T15:54:16.549Z,101229.38
2018-10-11T15:56:45.277Z,101228.89
2018-10-11T15:59:13.856Z,101224.72
2018-10-11T16:01:43.775Z,101229.81
2018-10-11T16:04:12.340Z,101243.53
2018-10-11T16:06:41.143Z,101245.80
2018-10-11T16:09:10.776Z,101259.39
2018-10-11T16:11:39.509Z,101253.69
2018-10-11T16:14:08.105Z,101251.83
2018-10-11T16:16:36.936Z,101261.17
2018-10-11T16:19:05.862Z,101262.71
2018-10-11T16:21:34.532Z,101272.87
2018-10-11T16:24:03.090Z,101267.39
2018-10-11T16:26:31.674Z,101255.38
2018-10-11T16:29:00.659Z,101255.11
2018-10-11T16:31:29.983Z,101177.88
2018-10-11T16:33:58.694Z,101212.20
2018-10-11T16:36:27.229Z,101254.34
2018-10-11T16:38:55.993Z,101214.02
2018-10-11T16:41:24.834Z,101254.89
2018-10-11T16:43:53.743Z,101256.30
2018-10-11T16:46:22.272Z,101265.61
2018-10-11T16:48:51.701Z,101271.16
2018-10-11T16:51:20.271Z,101278.63
2018-10-11T16:53:48.765Z,101282.09
2018-10-11T16:56:17.580Z,101288.25
2018-10-11T16:58:46.168Z,101282.91
2018-10-11T17:01:15.275Z,101283.44
2018-10-11T17:03:43.795Z,101274.06
2018-10-11T17:06:12.786Z,101274.27
2018-10-11T17:08:41.366Z,101269.51
2018-10-11T17:11:10.033Z,101268.38
2018-10-11T17:13:38.625Z,101273.56
2018-10-11T17:16:07.251Z,101276.45
2018-10-11T17:18:35.850Z,101269.41
2018-10-11T17:21:04.465Z,101290.84
2018-10-11T17:23:32.975Z,101286.69
2018-10-11T17:26:01.737Z,101281.45
2018-10-11T17:28:30.425Z,101281.88
2018-10-11T17:30:59.012Z,101287.98
2018-10-11T17:33:27.515Z,101301.92
2018-10-11T17:35:56.114Z,101306.12
2018-10-11T17:38:24.711Z,101307.87
2018-10-11T17:40:53.817Z,101301.21
2018-10-11T17:43:22.710Z,101298.22
2018-10-11T17:45:52.578Z,101291.75
2018-10-11T17:48:21.438Z,101291.39
2018-10-11T17:50:51.000Z,101292.16
2018-10-11T17:53:22.671Z,101299.39
2018-10-11T17:55:51.589Z,101290.86
2018-10-11T17:58:20.325Z,101301.92
2018-10-11T18:00:49.266Z,101300.78
2018-10-11T18:03:18.227Z,101302.11
2018-10-11T18:05:48.103Z,101314.60
2018-10-11T18:08:17.277Z,101314.13
2018-10-11T18:10:47.543Z,101305.38
2018-10-11T18:13:18.178Z,101312.23
2018-10-11T18:15:47.096Z,101259.67
2018-10-11T18:18:15.717Z,101292.84
2018-10-11T18:20:44.671Z,101215.12
2018-10-11T18:23:13.274Z,101309.23
2018-10-11T18:25:42.128Z,101317.76
2018-10-11T18:28:10.690Z,101322.04
2018-10-11T18:30:39.375Z,101324.22
2018-10-11T18:33:07.894Z,101322.52
2018-10-11T18:35:36.461Z,101324.81
2018-10-11T18:38:05.287Z,101324.41
2018-10-11T18:40:33.866Z,101321.20
2018-10-11T18:43:03.354Z,101323.46
2018-10-11T18:45:31.925Z,101322.41
2018-10-11T18:48:00.594Z,101318.92
2018-10-11T18:50:29.148Z,101310.92
2018-10-11T18:52:57.729Z,101309.31
2018-10-11T18:55:26.226Z,101302.66
2018-10-11T18:57:54.845Z,101312.83
2018-10-11T19:00:23.273Z,101309.98
2018-10-11T19:02:51.868Z,101305.59
2018-10-11T19:05:20.475Z,101311.50
2018-10-11T19:07:48.961Z,101318.72
2018-10-11T19:10:17.483Z,101312.25
2018-10-11T19:12:46.178Z,101306.38
2018-10-11T19:15:14.659Z,101309.41
2018-10-11T19:17:43.526Z,101312.26
2018-10-11T19:20:12.088Z,101319.09
2018-10-11T19:22:40.823Z,101319.09
2018-10-11T19:25:09.446Z,101327.58
2018-10-11T19:27:38.143Z,101325.56
2018-10-11T19:30:06.775Z,101324.98
2018-10-11T19:32:35.440Z,101318.52
2018-10-11T19:35:04.429Z,101328.59
2018-10-11T19:37:33.016Z,101326.52
2018-10-11T19:40:02.896Z,101325.56
2018-10-11T19:42:31.511Z,101320.42
2018-10-11T19:45:00.272Z,101306.75
2018-10-11T19:47:28.983Z,101312.63
2018-10-11T19:49:57.539Z,101306.44
2018-10-11T19:52:26.935Z,101297.22
2018-10-11T19:54:55.590Z,101305.39
2018-10-11T19:57:24.169Z,101315.11
2018-10-11T19:59:52.765Z,101308.05
2018-10-11T20:02:21.524Z,101310.63
2018-10-11T20:04:50.061Z,101320.40
2018-10-11T20:07:18.784Z,101329.34
2018-10-11T20:09:47.335Z,101327.64
2018-10-11T20:12:16.164Z,101320.59
2018-10-11T20:14:44.772Z,101324.58
2018-10-11T20:17:13.366Z,101323.83
2018-10-11T20:19:42.082Z,101321.36
2018-10-11T20:22:11.572Z,101329.70
2018-10-11T20:24:40.566Z,101327.23
2018-10-11T20:27:09.106Z,101320.21
2018-10-11T20:29:38.540Z,101280.27
2018-10-11T20:32:07.743Z,101330.08
2018-10-11T20:34:36.429Z,101325.49
2018-10-11T20:37:05.044Z,101333.28
2018-10-11T20:39:33.801Z,101326.07
2018-10-11T20:42:02.516Z,101323.97
2018-10-11T20:44:31.074Z,101329.28
2018-10-11T20:46:59.778Z,101334.52
2018-10-11T20:49:28.474Z,101329.09
2018-10-11T20:51:57.464Z,101327.34
2018-10-11T20:54:26.095Z,101323.16
2018-10-11T20:56:55.038Z,101324.09
2018-10-11T20:59:24.189Z,101319.36
2018-10-11T21:01:52.842Z,101322.63
2018-10-11T21:04:21.506Z,101316.70
2018-10-11T21:06:50.046Z,101324.68
2018-10-11T21:09:18.814Z,101273.59
2018-10-11T21:11:47.475Z,101328.02
2018-10-11T21:14:16.235Z,101272.99
2018-10-11T21:16:44.933Z,101320.48
2018-10-11T21:19:13.680Z,101322.07
2018-10-11T21:21:42.243Z,101320.92
2018-10-11T21:24:10.803Z,101330.39
2018-10-11T21:26:39.473Z,101249.07
2018-10-11T21:29:08.107Z,101331.17
2018-10-11T21:31:36.799Z,101334.38
2018-10-11T21:34:05.463Z,101325.08
2018-10-11T21:36:34.570Z,101314.17
2018-10-11T21:39:04.042Z,101323.64
2018-10-11T21:41:32.666Z,101327.39
2018-10-11T21:44:01.760Z,101327.66
2018-10-11T21:46:30.428Z,101321.67
2018-10-11T21:48:59.031Z,101316.62
2018-10-11T21:51:27.558Z,101323.81
2018-10-11T21:53:57.057Z,101333.66
2018-10-11T21:56:25.578Z,101333.28
2018-10-11T21:58:54.528Z,101333.45
2018-10-11T22:01:24.387Z,101335.33
2018-10-11T22:03:53.866Z,101336.82
2018-10-11T22:06:22.886Z,101336.23
2018-10-11T22:08:52.543Z,101333.75
2018-10-11T22:11:22.072Z,101329.94
2018-10-11T22:13:51.707Z,101257.11
2018-10-11T22:16:20.215Z,101332.94
2018-10-11T22:18:49.055Z,101329.49
2018-10-11T22:21:17.607Z,101336.13
2018-10-11T22:23:46.170Z,101334.22
2018-10-11T22:26:14.762Z,101331.41
2018-10-11T22:28:43.276Z,101324.39
2018-10-11T22:31:13.475Z,101218.77
2018-10-11T22:33:42.797Z,101318.38
2018-10-11T22:36:12.626Z,101268.63
2018-10-11T22:38:41.561Z,101313.41
2018-10-11T22:41:11.578Z,101305.07
2018-10-11T22:43:40.576Z,101312.48
2018-10-11T22:46:09.438Z,101316.64
2018-10-11T22:48:38.106Z,101316.56
2018-10-11T22:51:06.867Z,101297.69
2018-10-11T22:53:35.472Z,101307.84
2018-10-11T22:56:04.269Z,101303.48
2018-10-11T22:58:32.835Z,101305.36
2018-10-11T23:01:01.376Z,101304.57
2018-10-11T23:03:30.139Z,101292.38
2018-10-11T23:05:58.677Z,101298.72
2018-10-11T23:08:27.466Z,101195.20
2018-10-11T23:10:56.112Z,101303.00
2018-10-11T23:13:24.955Z,101303.95
2018-10-11T23:15:53.765Z,101297.69
2018-10-11T23:18:22.661Z,101307.06
2018-10-11T23:20:51.294Z,101310.58
2018-10-11T23:23:19.898Z,101309.42
2018-10-11T23:25:48.608Z,101310.25
2018-10-11T23:28:17.474Z,101301.63
2018-10-11T23:30:46.239Z,101301.63
2018-10-11T23:33:14.755Z,101303.41
2018-10-11T23:35:43.602Z,101302.70
2018-10-11T23:38:12.177Z,101298.34
2018-10-11T23:40:40.912Z,101302.70
2018-10-11T23:43:09.465Z,101298.34
2018-10-11T23:45:38.070Z,101298.51
2018-10-11T23:48:06.915Z,101276.08
2018-10-11T23:50:35.484Z,101288.36
2018-10-11T23:53:04.422Z,101284.45
2018-10-11T23:58:08.855Z,101286.20
